createdAt,value
2019-04-05T00:01:09.380Z,96302.45
2019-04-05T00:03:11.000Z,96302.47
2019-04-05T00:05:12.612Z,96310.05
2019-04-05T00:07:14.228Z,96300.25
2019-04-05T00:09:15.883Z,96309.69
2019-04-05T00:11:17.467Z,96306.30
2019-04-05T00:13:19.120Z,96302.47
2019-04-05T00:15:20.718Z,96305.12
2019-04-05T00:17:22.308Z,96301.16
2019-04-05T00:19:23.946Z,96303.06
2019-04-05T00:21:25.563Z,96306.01
2019-04-05T00:23:27.161Z,96308.86
2019-04-05T00:25:28.756Z,96307.45
2019-04-05T00:27:30.361Z,96312.36
2019-04-05T00:29:32.015Z,96312.45
2019-04-05T00:31:33.638Z,96308.30
2019-04-05T00:33:35.235Z,96313.52
2019-04-05T00:35:36.861Z,96313.64
2019-04-05T00:37:38.452Z,96310.72
2019-04-05T00:39:40.100Z,96307.41
2019-04-05T00:41:41.717Z,96309.16
2019-04-05T00:43:43.321Z,96304.55
2019-04-05T00:45:44.915Z,96311.77
2019-04-05T00:47:46.495Z,96312.09
2019-04-05T00:49:48.123Z,96314.08
2019-04-05T00:51:49.733Z,96311.29
2019-04-05T00:53:51.332Z,96309.80
2019-04-05T00:55:52.948Z,96310.43
2019-04-05T00:57:54.544Z,96309.06
2019-04-05T00:59:56.132Z,96310.28
2019-04-05T01:01:57.757Z,96321.27
2019-04-05T01:03:59.384Z,96312.45
2019-04-05T01:06:01.012Z,96322.31
2019-04-05T01:08:02.633Z,96323.59
2019-04-05T01:10:04.285Z,96321.95
2019-04-05T01:12:05.882Z,96328.63
2019-04-05T01:14:07.501Z,96333.38
2019-04-05T01:16:09.116Z,96336.00
2019-04-05T01:18:10.745Z,96333.17
2019-04-05T01:20:12.351Z,96328.16
2019-04-05T01:22:13.967Z,96331.24
2019-04-05T01:24:15.561Z,96332.58
2019-04-05T01:26:17.213Z,96333.41
2019-04-05T01:28:18.801Z,96334.54
2019-04-05T01:30:20.426Z,96337.42
2019-04-05T01:32:22.013Z,96338.19
2019-04-05T01:34:23.665Z,96335.25
2019-04-05T01:36:25.257Z,96339.11
2019-04-05T01:38:26.848Z,96340.89
2019-04-05T01:40:28.446Z,96340.48
2019-04-05T01:42:30.039Z,96349.89
2019-04-05T01:44:31.664Z,96343.56
2019-04-05T01:46:33.280Z,96342.37
2019-04-05T01:48:34.875Z,96355.27
2019-04-05T01:50:36.464Z,96352.15
2019-04-05T01:52:38.079Z,96356.39
2019-04-05T01:54:39.748Z,96357.16
2019-04-05T01:56:41.369Z,96357.28
2019-04-05T01:58:42.984Z,96351.41
2019-04-05T02:00:44.605Z,96361.50
2019-04-05T02:02:46.204Z,96359.07
2019-04-05T02:04:47.817Z,96354.86
2019-04-05T02:06:49.442Z,96355.30
2019-04-05T02:08:51.046Z,96361.67
2019-04-05T02:10:52.681Z,96356.71
2019-04-05T02:12:54.277Z,96353.11
2019-04-05T02:14:55.904Z,96357.15
2019-04-05T02:16:57.501Z,96352.95
2019-04-05T02:18:59.151Z,96361.52
2019-04-05T02:21:00.753Z,96349.73
2019-04-05T02:23:02.345Z,96363.06
2019-04-05T02:25:03.994Z,96361.95
2019-04-05T02:27:05.624Z,96362.69
2019-04-05T02:29:07.264Z,96362.66
2019-04-05T02:31:08.925Z,96372.02
2019-04-05T02:33:10.559Z,96374.97
2019-04-05T02:35:12.186Z,96365.48
2019-04-05T02:37:13.808Z,96362.95
2019-04-05T02:39:15.397Z,96361.23
2019-04-05T02:41:17.025Z,96365.92
2019-04-05T02:43:18.639Z,96354.70
2019-04-05T02:45:20.250Z,96365.80
2019-04-05T02:47:21.919Z,96366.57
2019-04-05T02:49:23.562Z,96364.78
2019-04-05T02:51:25.183Z,96366.89
2019-04-05T02:53:26.801Z,96356.09
2019-04-05T02:55:28.398Z,96366.89
2019-04-05T02:57:30.054Z,96364.94
2019-04-05T02:59:31.662Z,96366.25
2019-04-05T03:01:33.287Z,96360.36
2019-04-05T03:03:34.882Z,96364.67
2019-04-05T03:05:36.511Z,96367.08
2019-04-05T03:07:38.174Z,96368.91
2019-04-05T03:09:39.778Z,96370.89
2019-04-05T03:11:41.422Z,96368.72
2019-04-05T03:13:43.001Z,96377.70
2019-04-05T03:15:44.603Z,96383.55
2019-04-05T03:17:46.242Z,96381.50
2019-04-05T03:19:47.835Z,96394.86
2019-04-05T03:21:49.433Z,96396.14
2019-04-05T03:23:51.020Z,96391.72
2019-04-05T03:25:52.608Z,96410.90
2019-04-05T03:27:54.198Z,96406.23
2019-04-05T03:29:55.814Z,96412.27
2019-04-05T03:31:57.432Z,96414.38
2019-04-05T03:33:59.074Z,96417.35
2019-04-05T03:36:00.703Z,96411.37
2019-04-05T03:38:02.307Z,96420.36
2019-04-05T03:40:03.927Z,96421.54
2019-04-05T03:42:05.521Z,96426.75
2019-04-05T03:44:07.116Z,96421.19
2019-04-05T03:46:08.761Z,96424.48
2019-04-05T03:48:10.358Z,96426.17
2019-04-05T03:50:12.046Z,96426.84
2019-04-05T03:52:13.654Z,96422.73
2019-04-05T03:54:15.257Z,96436.45
2019-04-05T03:56:16.895Z,96433.77
2019-04-05T03:58:18.490Z,96440.63
2019-04-05T04:00:20.109Z,96440.81
2019-04-05T04:02:23.495Z,96444.70
2019-04-05T04:04:23.354Z,96452.85
2019-04-05T04:06:24.968Z,96454.37
2019-04-05T04:08:26.580Z,96458.91
2019-04-05T04:10:28.234Z,96457.72
2019-04-05T04:12:29.837Z,96467.30
2019-04-05T04:14:31.467Z,96469.59
2019-04-05T04:16:33.060Z,96476.45
2019-04-05T04:18:34.659Z,96484.36
2019-04-05T04:20:36.308Z,96485.49
2019-04-05T04:22:37.925Z,96479.34
2019-04-05T04:24:39.529Z,96467.66
2019-04-05T04:26:41.121Z,96491.05
2019-04-05T04:28:42.714Z,96493.52
2019-04-05T04:30:44.370Z,96499.49
2019-04-05T04:32:45.968Z,96496.48
2019-04-05T04:34:47.575Z,96501.52
2019-04-05T04:36:49.158Z,96505.73
2019-04-05T04:38:50.753Z,96514.50
2019-04-05T04:40:52.404Z,96519.30
2019-04-05T04:42:54.049Z,96516.14
2019-04-05T04:44:55.631Z,96519.86
2019-04-05T04:46:57.254Z,96524.77
2019-04-05T04:48:58.957Z,96523.02
2019-04-05T04:51:00.558Z,96518.79
2019-04-05T04:53:02.194Z,96524.30
2019-04-05T04:55:03.812Z,96517.98
2019-04-05T04:57:05.433Z,96531.25
2019-04-05T04:59:07.042Z,96526.70
2019-04-05T05:01:08.666Z,96524.17
2019-04-05T05:03:10.329Z,96528.88
2019-04-05T05:05:11.953Z,96520.63
2019-04-05T05:07:13.604Z,96532.70
2019-04-05T05:09:15.202Z,96522.87
2019-04-05T05:11:16.841Z,96531.78
2019-04-05T05:13:18.469Z,96536.77
2019-04-05T05:15:20.085Z,96531.87
2019-04-05T05:17:21.682Z,96539.48
2019-04-05T05:19:23.290Z,96541.84
2019-04-05T05:21:24.902Z,96543.69
2019-04-05T05:23:26.491Z,96543.38
2019-04-05T05:25:28.093Z,96546.44
2019-04-05T05:27:29.713Z,96546.44
2019-04-05T05:29:31.359Z,96548.64
2019-04-05T05:31:32.972Z,96553.28
2019-04-05T05:33:34.578Z,96555.42
2019-04-05T05:35:36.187Z,96552.05
2019-04-05T05:37:37.797Z,96552.47
2019-04-05T05:39:39.409Z,96556.42
2019-04-05T05:41:41.026Z,96561.63
2019-04-05T05:43:42.618Z,96567.20
2019-04-05T05:45:44.202Z,96565.51
2019-04-05T05:47:51.624Z,96569.31
2019-04-05T05:49:47.550Z,96576.98
2019-04-05T05:51:49.156Z,96574.84
2019-04-05T05:53:50.757Z,96574.38
2019-04-05T05:55:52.411Z,96584.59
2019-04-05T05:57:54.847Z,96580.65
2019-04-05T05:59:55.747Z,96579.70
2019-04-05T06:01:57.335Z,96554.08
2019-04-05T06:03:58.947Z,96581.51
2019-04-05T06:06:04.638Z,96579.95
2019-04-05T06:08:02.274Z,96585.16
2019-04-05T06:10:03.930Z,96585.54
2019-04-05T06:12:05.540Z,96584.73
2019-04-05T06:14:07.160Z,96565.30
2019-04-05T06:16:08.792Z,96592.41
2019-04-05T06:18:12.684Z,96594.02
2019-04-05T06:20:12.121Z,96592.73
2019-04-05T06:22:13.720Z,96595.20
2019-04-05T06:24:15.298Z,96601.23
2019-04-05T06:26:16.948Z,96598.29
2019-04-05T06:28:18.544Z,96602.98
2019-04-05T06:30:20.196Z,96596.59
2019-04-05T06:32:21.816Z,96606.41
2019-04-05T06:34:23.437Z,96604.80
2019-04-05T06:36:25.049Z,96606.09
2019-04-05T06:38:26.684Z,96604.88
2019-04-05T06:40:40.266Z,96604.48
2019-04-05T06:42:29.976Z,96603.80
2019-04-05T06:44:31.567Z,96607.34
2019-04-05T06:46:33.189Z,96609.23
2019-04-05T06:48:34.809Z,96604.30
2019-04-05T06:50:36.468Z,96590.46
2019-04-05T06:52:38.088Z,96609.73
2019-04-05T06:54:39.695Z,96614.03
2019-04-05T06:56:41.290Z,96611.92
2019-04-05T06:58:46.126Z,96609.77
2019-04-05T07:00:56.447Z,96606.66
2019-04-05T07:02:46.209Z,96613.77
2019-04-05T07:04:47.812Z,96605.21
2019-04-05T07:06:49.437Z,96611.29
2019-04-05T07:08:54.058Z,96609.84
2019-04-05T07:10:52.739Z,96608.44
2019-04-05T07:12:54.442Z,96605.34
2019-04-05T07:14:56.343Z,96618.45
2019-04-05T07:16:57.657Z,96625.63
2019-04-05T07:18:59.253Z,96628.18
2019-04-05T07:21:00.877Z,96625.63
2019-04-05T07:23:02.499Z,96630.79
2019-04-05T07:25:04.116Z,96630.91
2019-04-05T07:27:05.703Z,96636.95
2019-04-05T07:29:07.292Z,96639.16
2019-04-05T07:31:08.932Z,96634.34
2019-04-05T07:33:10.553Z,96642.92
2019-04-05T07:35:12.158Z,96641.06
2019-04-05T07:37:13.738Z,96645.76
2019-04-05T07:39:15.333Z,96643.94
2019-04-05T07:41:16.974Z,96647.09
2019-04-05T07:43:18.569Z,96650.51
2019-04-05T07:45:20.148Z,96641.13
2019-04-05T07:47:21.821Z,96644.56
2019-04-05T07:49:23.433Z,96645.55
2019-04-05T07:53:33.128Z,96642.59
2019-04-05T07:55:34.863Z,96644.83
2019-04-05T07:57:36.493Z,96646.28
2019-04-05T07:59:38.123Z,96644.12
2019-04-05T08:01:39.780Z,96646.14
2019-04-05T08:03:41.397Z,96643.62
2019-04-05T08:05:43.012Z,96647.16
2019-04-05T08:07:44.665Z,96644.02
2019-04-05T08:09:46.279Z,96644.04
2019-04-05T08:11:47.900Z,96648.23
2019-04-05T08:13:49.520Z,96644.41
2019-04-05T08:15:51.148Z,96647.79
2019-04-05T08:17:52.795Z,96645.51
2019-04-05T08:19:54.393Z,96650.64
2019-04-05T08:21:56.112Z,96652.48
2019-04-05T08:23:57.728Z,96658.95
2019-04-05T08:25:59.336Z,96653.91
2019-04-05T08:28:01.031Z,96655.70
2019-04-05T08:30:02.660Z,96657.70
2019-04-05T08:32:13.856Z,96662.30
2019-04-05T08:34:05.965Z,96656.40
2019-04-05T08:36:07.564Z,96664.53
2019-04-05T08:38:09.187Z,96655.73
2019-04-05T08:40:10.791Z,96657.09
2019-04-05T08:42:12.410Z,96654.31
2019-04-05T08:44:14.017Z,96662.98
2019-04-05T08:46:15.633Z,96663.34
2019-04-05T08:48:17.260Z,96647.84
2019-04-05T08:50:18.873Z,96664.46
2019-04-05T08:52:20.473Z,96628.93
2019-04-05T08:54:31.905Z,96660.18
2019-04-05T08:56:23.719Z,96656.25
2019-04-05T08:58:33.235Z,96660.48
2019-04-05T09:00:26.999Z,96664.67
2019-04-05T09:02:28.617Z,96666.34
2019-04-05T09:04:30.229Z,96661.53
2019-04-05T09:06:31.860Z,96663.95
2019-04-05T09:08:33.463Z,96668.59
2019-04-05T09:10:35.191Z,96658.92
2019-04-05T09:12:36.796Z,96653.33
2019-04-05T09:14:38.406Z,96655.11
2019-04-05T09:16:40.005Z,96650.53
2019-04-05T09:18:41.592Z,96656.56
2019-04-05T09:20:43.220Z,96647.25
2019-04-05T09:22:44.845Z,96647.72
2019-04-05T09:24:46.489Z,96649.45
2019-04-05T09:26:48.099Z,96651.67
2019-04-05T09:28:49.692Z,96651.65
2019-04-05T09:30:51.949Z,96648.95
2019-04-05T09:32:53.010Z,96650.05
2019-04-05T09:34:54.642Z,96650.95
2019-04-05T09:36:56.254Z,96651.39
2019-04-05T09:38:57.838Z,96648.78
2019-04-05T09:40:59.471Z,96650.05
2019-04-05T09:43:01.063Z,96650.39
2019-04-05T09:45:02.713Z,96648.16
2019-04-05T09:47:04.309Z,96651.88
2019-04-05T09:49:05.957Z,96651.02
2019-04-05T09:51:07.577Z,96639.09
2019-04-05T09:53:09.182Z,96642.13
2019-04-05T09:55:10.840Z,96641.80
2019-04-05T09:57:12.447Z,96647.11
2019-04-05T09:59:14.051Z,96645.19
2019-04-05T10:01:15.668Z,96656.16
2019-04-05T10:03:17.284Z,96646.66
2019-04-05T10:05:18.884Z,96641.09
2019-04-05T10:07:20.477Z,96647.81
2019-04-05T10:09:22.097Z,96623.77
2019-04-05T10:11:23.693Z,96642.84
2019-04-05T10:13:25.299Z,96644.60
2019-04-05T10:15:26.922Z,96646.74
2019-04-05T10:17:28.571Z,96643.80
2019-04-05T10:19:30.194Z,96643.38
2019-04-05T10:21:31.836Z,96645.88
2019-04-05T10:23:33.456Z,96648.88
2019-04-05T10:25:35.082Z,96647.05
2019-04-05T10:27:36.740Z,96651.77
2019-04-05T10:29:38.352Z,96646.70
2019-04-05T10:31:40.007Z,96646.14
2019-04-05T10:33:41.625Z,96652.95
2019-04-05T10:35:43.245Z,96652.06
2019-04-05T10:37:44.874Z,96656.23
2019-04-05T10:39:46.486Z,96718.23
2019-04-05T10:41:48.094Z,96655.53
2019-04-05T10:43:49.716Z,96657.59
2019-04-05T10:45:51.311Z,96656.29
2019-04-05T10:47:52.939Z,96646.65
2019-04-05T10:50:02.812Z,96649.98
2019-04-05T10:51:56.180Z,96654.70
2019-04-05T10:53:57.763Z,96654.56
2019-04-05T10:55:59.357Z,96662.18
2019-04-05T10:58:01.024Z,96662.29
2019-04-05T11:00:02.607Z,96663.04
2019-04-05T11:02:04.186Z,96653.25
2019-04-05T11:04:05.795Z,96659.48
2019-04-05T11:06:07.389Z,96659.19
2019-04-05T11:08:09.046Z,96670.23
2019-04-05T11:10:10.665Z,96665.81
2019-04-05T11:12:12.280Z,96661.45
2019-04-05T11:14:14.336Z,96657.13
2019-04-05T11:16:15.526Z,96658.95
2019-04-05T11:18:17.172Z,96662.66
2019-04-05T11:20:22.168Z,96662.79
2019-04-05T11:22:21.185Z,96653.65
2019-04-05T11:24:22.316Z,96660.70
2019-04-05T11:26:23.959Z,96660.23
2019-04-05T11:28:25.673Z,96656.36
2019-04-05T11:30:27.269Z,96653.86
2019-04-05T11:32:28.876Z,96656.39
2019-04-05T11:34:30.494Z,96661.92
2019-04-05T11:36:32.092Z,96665.76
2019-04-05T11:38:33.725Z,96659.72
2019-04-05T11:40:35.347Z,96663.55
2019-04-05T11:42:36.961Z,96658.86
2019-04-05T11:44:38.594Z,96659.28
2019-04-05T11:46:40.226Z,96658.84
2019-04-05T11:48:41.856Z,96663.39
2019-04-05T11:50:43.510Z,96656.88
2019-04-05T11:52:45.128Z,96657.19
2019-04-05T11:54:46.750Z,96647.34
2019-04-05T11:56:48.369Z,96647.31
2019-04-05T11:58:50.084Z,96653.70
2019-04-05T12:00:52.708Z,96651.92
2019-04-05T12:02:56.087Z,96648.09
2019-04-05T12:04:57.714Z,96651.09
2019-04-05T12:06:59.351Z,96647.70
2019-04-05T12:09:01.457Z,96644.67
2019-04-05T12:11:02.664Z,96656.15
2019-04-05T12:13:04.327Z,96648.89
2019-04-05T12:15:06.458Z,96643.72
2019-04-05T12:17:09.702Z,96641.58
2019-04-05T12:19:09.236Z,96642.00
2019-04-05T12:21:10.884Z,96635.07
2019-04-05T12:23:12.562Z,96639.30
2019-04-05T12:25:14.290Z,96634.86
2019-04-05T12:27:15.930Z,96633.50
2019-04-05T12:29:17.521Z,96634.30
2019-04-05T12:31:19.402Z,96635.61
2019-04-05T12:33:21.017Z,96636.89
2019-04-05T12:35:22.632Z,96633.92
2019-04-05T12:37:24.804Z,96627.67
2019-04-05T12:39:26.422Z,96623.27
2019-04-05T12:41:28.036Z,96609.25
2019-04-05T12:43:29.787Z,96633.14
2019-04-05T12:45:31.390Z,96638.88
2019-04-05T12:47:34.110Z,96637.42
2019-04-05T12:49:35.849Z,96630.05
2019-04-05T12:51:37.478Z,96637.48
2019-04-05T12:53:39.184Z,96642.13
2019-04-05T12:55:40.814Z,96636.50
2019-04-05T12:57:42.428Z,96631.33
2019-04-05T12:59:44.062Z,96632.61
2019-04-05T13:01:46.480Z,96631.69
2019-04-05T13:03:47.347Z,96629.96
2019-04-05T13:05:51.330Z,96622.70
2019-04-05T13:07:52.506Z,96639.30
2019-04-05T13:09:54.941Z,96629.71
2019-04-05T13:11:56.451Z,96623.10
2019-04-05T13:13:56.327Z,96630.84
2019-04-05T13:15:59.375Z,96622.17
2019-04-05T13:18:01.207Z,96626.27
2019-04-05T13:20:01.256Z,96619.44
2019-04-05T13:22:02.931Z,96617.64
2019-04-05T13:24:04.612Z,96625.53
2019-04-05T13:26:05.664Z,96613.30
2019-04-05T13:28:13.241Z,96613.13
2019-04-05T13:30:09.032Z,96616.54
2019-04-05T13:32:10.607Z,96615.77
2019-04-05T13:34:12.205Z,96613.42
2019-04-05T13:36:13.819Z,96607.10
2019-04-05T13:38:15.411Z,96612.18
2019-04-05T13:40:17.500Z,96613.80
2019-04-05T13:42:19.135Z,96610.20
2019-04-05T13:44:20.773Z,96607.88
2019-04-05T13:46:25.844Z,96614.20
2019-04-05T13:48:24.113Z,96614.14
2019-04-05T13:50:25.718Z,96606.61
2019-04-05T13:52:27.329Z,96609.47
2019-04-05T13:54:28.989Z,96606.08
2019-04-05T13:56:30.599Z,96607.56
2019-04-05T13:58:32.207Z,96603.22
2019-04-05T14:00:33.836Z,96603.13
2019-04-05T14:02:35.452Z,96602.05
2019-04-05T14:04:37.093Z,96607.80
2019-04-05T14:06:38.692Z,96603.88
2019-04-05T14:08:41.895Z,96605.06
2019-04-05T14:10:42.039Z,96577.42
2019-04-05T14:12:47.272Z,96599.26
2019-04-05T14:14:51.388Z,96605.92
2019-04-05T14:16:50.589Z,96603.09
2019-04-05T14:18:52.209Z,96599.41
2019-04-05T14:20:53.868Z,96604.27
2019-04-05T14:22:55.450Z,96596.29
2019-04-05T14:24:57.102Z,96599.71
2019-04-05T14:26:59.058Z,96594.83
2019-04-05T14:29:03.471Z,96599.41
2019-04-05T14:31:02.810Z,96602.56
2019-04-05T14:33:04.173Z,96603.13
2019-04-05T14:35:07.775Z,96598.61
2019-04-05T14:37:07.524Z,96602.74
2019-04-05T14:39:09.151Z,96601.55
2019-04-05T14:41:11.189Z,96610.36
2019-04-05T14:43:14.908Z,96601.22
2019-04-05T14:45:14.495Z,96607.11
2019-04-05T14:47:16.090Z,96606.57
2019-04-05T14:49:17.682Z,96606.42
2019-04-05T14:51:19.297Z,96602.47
2019-04-05T14:53:20.893Z,96609.61
2019-04-05T14:55:22.553Z,96612.34
2019-04-05T14:57:24.158Z,96611.55
2019-04-05T14:59:25.756Z,96599.44
2019-04-05T15:01:27.348Z,96599.08
2019-04-05T15:03:28.974Z,96605.42
2019-04-05T15:05:30.588Z,96602.03
2019-04-05T15:07:32.189Z,96604.61
2019-04-05T15:09:33.806Z,96602.56
2019-04-05T15:11:35.410Z,96598.25
2019-04-05T15:13:37.024Z,96602.50
2019-04-05T15:15:38.677Z,96603.03
2019-04-05T15:17:47.965Z,96605.17
2019-04-05T15:19:41.962Z,96606.03
2019-04-05T15:21:44.915Z,96607.38
2019-04-05T15:23:46.188Z,96604.72
2019-04-05T15:25:49.428Z,96610.06
2019-04-05T15:27:51.727Z,96612.80
2019-04-05T15:29:50.224Z,96612.50
2019-04-05T15:31:53.430Z,96612.20
2019-04-05T15:33:53.526Z,96615.88
2019-04-05T15:35:58.356Z,96637.38
2019-04-05T15:37:56.815Z,96616.56
2019-04-05T15:39:58.640Z,96614.57
2019-04-05T15:42:00.040Z,96618.41
2019-04-05T15:44:01.652Z,96619.23
2019-04-05T15:46:03.282Z,96627.03
2019-04-05T15:48:04.939Z,96635.17
2019-04-05T15:50:06.544Z,96641.78
2019-04-05T15:52:18.139Z,96638.70
2019-04-05T15:54:09.774Z,96638.62
2019-04-05T15:56:11.368Z,96642.34
2019-04-05T15:58:13.004Z,96647.04
2019-04-05T16:00:15.563Z,96643.38
2019-04-05T16:02:17.152Z,96639.31
2019-04-05T16:04:18.749Z,96645.91
2019-04-05T16:06:20.347Z,96647.47
2019-04-05T16:08:21.928Z,96645.00
2019-04-05T16:10:23.541Z,96641.16
2019-04-05T16:12:25.149Z,96644.06
2019-04-05T16:14:26.808Z,96642.60
2019-04-05T16:16:28.418Z,96648.63
2019-04-05T16:18:30.026Z,96641.88
2019-04-05T16:20:31.640Z,96638.56
2019-04-05T16:22:35.756Z,96643.77
2019-04-05T16:24:34.900Z,96637.02
2019-04-05T16:26:36.523Z,96644.98
2019-04-05T16:28:40.863Z,96643.58
2019-04-05T16:30:39.986Z,96646.69
2019-04-05T16:32:41.597Z,96645.56
2019-04-05T16:34:43.230Z,96650.44
2019-04-05T16:36:44.840Z,96645.46
2019-04-05T16:38:46.441Z,96645.61
2019-04-05T16:40:48.072Z,96647.83
2019-04-05T16:43:01.749Z,96655.59
2019-04-05T16:44:51.352Z,96648.00
2019-04-05T16:46:53.166Z,96647.25
2019-04-05T16:48:54.756Z,96652.42
2019-04-05T16:50:56.426Z,96660.71
2019-04-05T16:52:58.022Z,96664.98
2019-04-05T16:54:59.641Z,96665.43
2019-04-05T16:57:01.370Z,96659.19
2019-04-05T16:59:02.997Z,96666.02
2019-04-05T17:01:04.629Z,96660.95
2019-04-05T17:03:06.238Z,96659.19
2019-04-05T17:05:08.523Z,96659.98
2019-04-05T17:07:10.206Z,96659.52
2019-04-05T17:09:11.814Z,96663.63
2019-04-05T17:11:13.440Z,96662.70
2019-04-05T17:13:15.042Z,96667.66
2019-04-05T17:15:16.693Z,96613.55
2019-04-05T17:17:18.307Z,96663.98
2019-04-05T17:19:20.594Z,96663.45
2019-04-05T17:21:22.277Z,96668.88
2019-04-05T17:23:23.881Z,96671.79
2019-04-05T17:25:25.622Z,96645.63
2019-04-05T17:27:27.215Z,96669.22
2019-04-05T17:29:28.837Z,96669.87
2019-04-05T17:31:30.482Z,96676.20
2019-04-05T17:33:32.080Z,96678.29
2019-04-05T17:35:33.700Z,96676.59
2019-04-05T17:37:35.326Z,96678.73
2019-04-05T17:39:36.934Z,96681.77
2019-04-05T17:41:38.558Z,96682.71
2019-04-05T17:43:40.176Z,96683.55
2019-04-05T17:45:41.796Z,96681.94
2019-04-05T17:47:43.408Z,96684.10
2019-04-05T17:49:45.046Z,96688.36
2019-04-05T17:51:46.677Z,96694.36
2019-04-05T17:53:48.275Z,96692.58
2019-04-05T17:55:49.871Z,96698.61
2019-04-05T17:57:51.469Z,96701.70
2019-04-05T17:59:53.065Z,96695.75
2019-04-05T18:01:54.703Z,96703.11
2019-04-05T18:03:56.309Z,96708.73
2019-04-05T18:05:58.023Z,96706.62
2019-04-05T18:07:59.678Z,96709.76
2019-04-05T18:10:01.291Z,96708.64
2019-04-05T18:12:02.931Z,96707.87
2019-04-05T18:14:04.590Z,96710.91
2019-04-05T18:16:06.179Z,96713.66
2019-04-05T18:18:07.803Z,96712.30
2019-04-05T18:20:10.020Z,96716.05
2019-04-05T18:22:11.144Z,96712.25
2019-04-05T18:24:12.760Z,96717.83
2019-04-05T18:26:14.376Z,96717.19
2019-04-05T18:28:16.038Z,96721.97
2019-04-05T18:30:17.636Z,96718.90
2019-04-05T18:32:19.211Z,96722.65
2019-04-05T18:34:20.808Z,96729.34
2019-04-05T18:36:22.404Z,96727.63
2019-04-05T18:38:24.037Z,96733.42
2019-04-05T18:40:25.703Z,96691.16
2019-04-05T18:42:27.360Z,96737.52
2019-04-05T18:44:28.954Z,96735.38
2019-04-05T18:46:30.560Z,96738.04
2019-04-05T18:48:32.316Z,96725.88
2019-04-05T18:50:34.028Z,96732.76
2019-04-05T18:52:35.647Z,96741.33
2019-04-05T18:54:37.240Z,96734.34
2019-04-05T18:56:38.854Z,96738.42
2019-04-05T18:58:40.504Z,96742.69
2019-04-05T19:00:42.176Z,96733.85
2019-04-05T19:02:43.806Z,96733.08
2019-04-05T19:04:45.428Z,96735.08
2019-04-05T19:06:47.038Z,96741.61
2019-04-05T19:08:48.712Z,96743.81
2019-04-05T19:10:50.305Z,96734.72
2019-04-05T19:12:51.986Z,96738.24
2019-04-05T19:14:53.535Z,96745.77
2019-04-05T19:16:55.153Z,96739.40
2019-04-05T19:18:56.766Z,96743.83
2019-04-05T19:20:58.427Z,96747.88
2019-04-05T19:23:00.049Z,96742.99
2019-04-05T19:25:04.742Z,96744.33
2019-04-05T19:27:03.661Z,96738.48
2019-04-05T19:29:05.368Z,96745.40
2019-04-05T19:49:23.200Z,96724.53
2019-04-05T19:51:24.844Z,96744.00
2019-04-05T19:53:26.431Z,96750.80
2019-04-05T19:55:28.113Z,96746.14
2019-04-05T19:57:29.831Z,96751.69
2019-04-05T19:59:31.450Z,96747.96
2019-04-05T20:01:33.047Z,96752.58
2019-04-05T20:03:34.668Z,96755.38
2019-04-05T20:05:36.295Z,96760.38
2019-04-05T20:07:37.955Z,96758.33
2019-04-05T20:09:39.550Z,96755.21
2019-04-05T20:11:41.164Z,96760.05
2019-04-05T20:13:42.832Z,96762.94
2019-04-05T20:15:44.428Z,96754.98
2019-04-05T20:17:46.125Z,96758.48
2019-04-05T20:19:47.738Z,96757.68
2019-04-05T20:21:49.376Z,96766.08
2019-04-05T20:23:51.000Z,96764.31
2019-04-05T20:25:52.593Z,96760.24
2019-04-05T20:27:54.182Z,96765.97
2019-04-05T20:29:55.777Z,96770.30
2019-04-05T20:31:57.363Z,96771.39
2019-04-05T20:33:58.980Z,96772.07
2019-04-05T20:36:00.625Z,96773.91
2019-04-05T20:38:02.312Z,96781.09
2019-04-05T20:40:03.990Z,96784.11
2019-04-05T20:42:05.568Z,96785.97
2019-04-05T20:44:07.190Z,96772.34
2019-04-05T20:46:08.776Z,96783.69
2019-04-05T20:48:10.369Z,96752.13
2019-04-05T20:50:11.989Z,96776.60
2019-04-05T20:52:13.595Z,96777.49
2019-04-05T20:54:24.197Z,96782.08
2019-04-05T20:56:16.920Z,96773.92
2019-04-05T20:58:18.580Z,96777.36
2019-04-05T21:00:20.195Z,96771.52
2019-04-05T21:02:21.799Z,96730.56
2019-04-05T21:04:23.383Z,96769.34
2019-04-05T21:06:25.028Z,96768.34
2019-04-05T21:08:26.640Z,96772.18
2019-04-05T21:10:28.299Z,96775.00
2019-04-05T21:12:29.893Z,96770.98
2019-04-05T21:14:31.508Z,96776.23
2019-04-05T21:16:33.141Z,96771.34
2019-04-05T21:18:34.838Z,96733.56
2019-04-05T21:20:36.496Z,96778.56
2019-04-05T21:22:38.123Z,96777.87
2019-04-05T21:24:39.719Z,96778.38
2019-04-05T21:26:41.400Z,96781.88
2019-04-05T21:28:43.023Z,96779.94
2019-04-05T21:30:44.680Z,96780.94
2019-04-05T21:32:46.280Z,96788.39
2019-04-05T21:34:47.879Z,96789.38
2019-04-05T21:36:49.508Z,96792.84
2019-04-05T21:38:51.100Z,96791.77
2019-04-05T21:40:52.698Z,96794.91
2019-04-05T21:42:54.993Z,96796.73
2019-04-05T21:44:56.599Z,96799.41
2019-04-05T21:46:58.193Z,96800.37
2019-04-05T21:48:59.800Z,96792.81
2019-04-05T21:51:01.432Z,96795.84
2019-04-05T21:53:03.093Z,96800.20
2019-04-05T21:55:04.803Z,96798.11
2019-04-05T21:57:06.450Z,96804.12
2019-04-05T21:59:08.072Z,96801.62
2019-04-05T22:01:09.723Z,96810.26
2019-04-05T22:03:11.337Z,96805.72
2019-04-05T22:05:12.934Z,96811.33
2019-04-05T22:07:14.532Z,96817.42
2019-04-05T22:09:16.145Z,96812.77
2019-04-05T22:11:17.771Z,96812.84
2019-04-05T22:13:19.385Z,96818.98
2019-04-05T22:15:20.980Z,96811.58
2019-04-05T22:17:22.598Z,96814.70
2019-04-05T22:19:24.186Z,96810.20
2019-04-05T22:21:25.836Z,96807.36
2019-04-05T22:23:27.452Z,96807.47
2019-04-05T22:25:29.068Z,96768.33
2019-04-05T22:27:30.716Z,96810.15
2019-04-05T22:29:32.318Z,96809.81
2019-04-05T22:31:33.937Z,96817.09
2019-04-05T22:33:35.569Z,96812.05
2019-04-05T22:35:37.184Z,96816.78
2019-04-05T22:37:38.780Z,96819.80
2019-04-05T22:39:40.372Z,96813.94
2019-04-05T22:41:41.950Z,96822.09
2019-04-05T22:43:43.526Z,96817.06
2019-04-05T22:45:45.180Z,96816.67
2019-04-05T22:47:46.776Z,96821.70
2019-04-05T22:49:48.387Z,96822.09
2019-04-05T22:51:50.014Z,96828.88
2019-04-05T22:53:51.634Z,96826.27
2019-04-05T22:55:53.214Z,96831.17
2019-04-05T22:57:54.828Z,96827.73
2019-04-05T22:59:56.439Z,96822.77
2019-04-05T23:01:58.032Z,96835.73
2019-04-05T23:03:59.680Z,96824.45
2019-04-05T23:06:01.300Z,96840.97
2019-04-05T23:08:02.952Z,96834.69
2019-04-05T23:10:04.584Z,96838.60
2019-04-05T23:12:06.204Z,96837.80
2019-04-05T23:14:07.822Z,96843.72
2019-04-05T23:16:09.450Z,96850.12
2019-04-05T23:18:11.041Z,96847.99
2019-04-05T23:20:12.660Z,96845.98
2019-04-05T23:22:14.272Z,96850.34
2019-04-05T23:24:15.883Z,96847.36
2019-04-05T23:26:17.532Z,96848.64
2019-04-05T23:28:19.132Z,96842.28
2019-04-05T23:30:20.771Z,96840.56
2019-04-05T23:32:22.394Z,96843.42
2019-04-05T23:34:24.007Z,96846.30
2019-04-05T23:36:25.659Z,96837.81
2019-04-05T23:38:27.243Z,96837.04
2019-04-05T23:40:28.833Z,96838.76
2019-04-05T23:42:30.445Z,96838.47
2019-04-05T23:44:32.060Z,96832.60
2019-04-05T23:46:33.681Z,96828.88
2019-04-05T23:48:35.276Z,96825.48
2019-04-05T23:50:36.888Z,96833.23
2019-04-05T23:52:38.507Z,96832.44
2019-04-05T23:54:40.102Z,96828.22
2019-04-05T23:56:41.743Z,96830.84
2019-04-05T23:58:43.360Z,96829.16
